Terminal Aerodrome Forecast
Issued by NWS

Home | Current Version | Previous Version | Text Only | Print | Product List | Glossary On
Versions: 1 2 3 4 5 6 7 8 9 10 11 12 13 14
033
FTUS43 KDLH 151410 AAD
TAFHYR
TAF AMD
KHYR 151410Z 1514/1612 34007KT P6SM VCSH OVC010
     FM151600 33007KT P6SM SCT030
     FM152000 28009KT P6SM SCT080
     FM160100 00000KT P6SM BKN110=

USA.gov is the U.S. government's official web portal to all federal, state and local government web resources and services.